createdAt,value
2019-06-26T00:00:42.491Z,953.23
2019-06-26T00:01:42.400Z,953.24
2019-06-26T00:02:42.311Z,953.26
2019-06-26T00:03:42.240Z,953.28
2019-06-26T00:04:42.153Z,953.23
2019-06-26T00:05:42.255Z,953.27
2019-06-26T00:06:41.966Z,953.29
2019-06-26T00:07:41.885Z,953.26
2019-06-26T00:08:41.784Z,953.27
2019-06-26T00:09:41.711Z,953.30
2019-06-26T00:10:41.610Z,953.27
2019-06-26T00:11:41.523Z,953.31
2019-06-26T00:12:41.540Z,953.32
2019-06-26T00:13:41.346Z,953.30
2019-06-26T00:14:41.277Z,953.29
2019-06-26T00:15:41.172Z,953.29
2019-06-26T00:16:41.083Z,953.28
2019-06-26T00:17:40.996Z,953.28
2019-06-26T00:18:40.908Z,953.25
2019-06-26T00:19:40.942Z,953.26
2019-06-26T00:20:40.735Z,953.28
2019-06-26T00:21:40.647Z,953.28
2019-06-26T00:22:40.558Z,953.35
2019-06-26T00:23:40.471Z,953.32
2019-06-26T00:24:40.385Z,953.32
2019-06-26T00:25:40.418Z,953.30
2019-06-26T00:26:40.251Z,953.29
2019-06-26T00:27:40.119Z,953.28
2019-06-26T00:28:40.032Z,953.32
2019-06-26T00:29:39.964Z,953.31
2019-06-26T00:30:39.860Z,953.35
2019-06-26T00:31:39.770Z,953.38
2019-06-26T00:32:39.679Z,953.37
2019-06-26T00:33:39.593Z,953.35
2019-06-26T00:34:39.510Z,953.30
2019-06-26T00:35:39.433Z,953.30
2019-06-26T00:36:39.329Z,953.32
2019-06-26T00:37:39.251Z,953.32
2019-06-26T00:38:40.150Z,953.33
2019-06-26T00:39:39.083Z,953.29
2019-06-26T00:40:38.993Z,953.30
2019-06-26T00:41:38.894Z,953.28
2019-06-26T00:42:38.803Z,953.29
2019-06-26T00:43:42.654Z,953.28
2019-06-26T00:44:38.632Z,953.27
2019-06-26T00:45:38.554Z,953.31
2019-06-26T00:46:38.452Z,953.27
2019-06-26T00:47:38.364Z,953.28
2019-06-26T00:48:38.281Z,953.28
2019-06-26T00:49:38.192Z,953.23
2019-06-26T00:50:38.121Z,953.21
2019-06-26T00:51:38.014Z,953.26
2019-06-26T00:52:37.925Z,953.23
2019-06-26T00:53:37.841Z,953.24
2019-06-26T00:54:37.750Z,953.27
2019-06-26T00:55:37.678Z,953.27
2019-06-26T00:56:37.576Z,953.29
2019-06-26T00:57:37.511Z,953.27
2019-06-26T00:58:37.412Z,953.28
2019-06-26T00:59:37.314Z,953.27
2019-06-26T01:00:37.243Z,953.30
2019-06-26T01:01:37.145Z,953.29
2019-06-26T01:02:37.079Z,953.26
2019-06-26T01:03:36.961Z,953.24
2019-06-26T01:04:36.871Z,953.26
2019-06-26T01:05:36.799Z,953.27
2019-06-26T01:06:36.701Z,953.27
2019-06-26T01:07:36.610Z,953.29
2019-06-26T01:08:36.528Z,953.29
2019-06-26T01:09:36.433Z,953.37
2019-06-26T01:10:36.415Z,953.28
2019-06-26T01:11:36.258Z,953.29
2019-06-26T01:12:36.172Z,953.32
2019-06-26T01:13:36.081Z,953.29
2019-06-26T01:14:36.001Z,953.26
2019-06-26T01:15:35.924Z,953.30
2019-06-26T01:16:35.820Z,953.25
2019-06-26T01:17:35.729Z,953.25
2019-06-26T01:18:35.647Z,953.30
2019-06-26T01:19:35.556Z,953.26
2019-06-26T01:20:35.488Z,953.28
2019-06-26T01:21:35.379Z,953.25
2019-06-26T01:22:35.292Z,953.23
2019-06-26T01:23:35.204Z,953.22
2019-06-26T01:24:35.117Z,953.21
2019-06-26T01:25:35.051Z,953.18
2019-06-26T01:26:34.941Z,953.16
2019-06-26T01:27:34.855Z,953.19
2019-06-26T01:28:34.763Z,953.17
2019-06-26T01:29:34.676Z,953.17
2019-06-26T01:30:34.603Z,953.23
2019-06-26T01:31:34.501Z,953.21
2019-06-26T01:32:34.487Z,953.22
2019-06-26T01:33:34.325Z,953.16
2019-06-26T01:34:34.238Z,953.25
2019-06-26T01:35:34.164Z,953.22
2019-06-26T01:36:34.063Z,953.25
2019-06-26T01:37:33.975Z,953.25
2019-06-26T01:38:33.886Z,953.23
2019-06-26T01:39:33.799Z,953.29
2019-06-26T01:40:33.714Z,953.26
2019-06-26T01:41:33.636Z,953.22
2019-06-26T01:42:33.647Z,953.27
2019-06-26T01:43:33.463Z,953.23
2019-06-26T01:44:33.359Z,953.25
2019-06-26T01:45:33.288Z,953.26
2019-06-26T01:46:33.225Z,953.25
2019-06-26T01:47:33.098Z,953.24
2019-06-26T01:48:33.008Z,953.24
2019-06-26T01:49:33.023Z,953.31
2019-06-26T01:50:32.834Z,953.25
2019-06-26T01:51:32.757Z,953.28
2019-06-26T01:52:32.657Z,953.25
2019-06-26T01:53:32.567Z,953.26
2019-06-26T01:54:32.483Z,953.24
2019-06-26T01:55:32.394Z,953.26
2019-06-26T01:56:32.318Z,953.26
2019-06-26T01:57:32.217Z,953.24
2019-06-26T01:58:32.128Z,953.21
2019-06-26T01:59:32.039Z,953.23
2019-06-26T02:00:31.985Z,953.24
2019-06-26T02:01:31.878Z,953.21
2019-06-26T02:02:31.785Z,953.25
2019-06-26T02:03:31.810Z,953.24
2019-06-26T02:04:31.636Z,953.25
2019-06-26T02:05:31.513Z,953.29
2019-06-26T02:06:31.439Z,953.29
2019-06-26T02:07:31.342Z,953.29
2019-06-26T02:08:31.254Z,953.27
2019-06-26T02:09:31.158Z,953.30
2019-06-26T02:10:31.174Z,953.28
2019-06-26T02:11:30.998Z,953.29
2019-06-26T02:12:30.896Z,953.32
2019-06-26T02:13:30.806Z,953.30
2019-06-26T02:14:31.873Z,953.29
2019-06-26T02:15:30.634Z,953.30
2019-06-26T02:16:30.555Z,953.30
2019-06-26T02:17:30.555Z,953.28
2019-06-26T02:18:30.370Z,953.23
2019-06-26T02:19:30.287Z,953.21
2019-06-26T02:20:30.189Z,953.22
2019-06-26T02:21:30.117Z,953.26
2019-06-26T02:22:30.012Z,953.25
2019-06-26T02:23:29.926Z,953.27
2019-06-26T02:24:29.937Z,953.26
2019-06-26T02:25:29.748Z,953.26
2019-06-26T02:26:29.675Z,953.27
2019-06-26T02:27:29.572Z,953.26
2019-06-26T02:28:29.498Z,953.25
2019-06-26T02:29:29.395Z,953.30
2019-06-26T02:30:29.309Z,953.32
2019-06-26T02:31:29.338Z,953.28
2019-06-26T02:32:29.131Z,953.28
2019-06-26T02:33:29.046Z,953.27
2019-06-26T02:34:28.956Z,953.29
2019-06-26T02:35:28.877Z,953.29
2019-06-26T02:36:28.793Z,953.25
2019-06-26T02:37:28.693Z,953.29
2019-06-26T02:38:28.705Z,953.28
2019-06-26T02:39:28.514Z,953.29
2019-06-26T02:40:28.430Z,953.30
2019-06-26T02:41:28.340Z,953.26
2019-06-26T02:42:28.267Z,953.26
2019-06-26T02:43:28.160Z,953.23
2019-06-26T02:44:28.072Z,953.25
2019-06-26T02:45:28.088Z,953.27
2019-06-26T02:46:27.918Z,953.28
2019-06-26T02:47:27.822Z,953.24
2019-06-26T02:48:27.726Z,953.29
2019-06-26T02:49:27.634Z,953.23
2019-06-26T02:50:27.554Z,953.26
2019-06-26T02:51:27.456Z,953.29
2019-06-26T02:52:27.487Z,953.29
2019-06-26T02:53:27.280Z,953.27
2019-06-26T02:54:27.195Z,953.29
2019-06-26T02:55:27.103Z,953.28
2019-06-26T02:56:27.016Z,953.28
2019-06-26T02:57:26.953Z,953.30
2019-06-26T02:58:26.838Z,953.26
2019-06-26T02:59:26.851Z,953.23
2019-06-26T03:00:26.676Z,953.26
2019-06-26T03:01:26.575Z,953.23
2019-06-26T03:02:26.502Z,953.24
2019-06-26T03:03:26.401Z,953.25
2019-06-26T03:04:26.312Z,953.25
2019-06-26T03:05:26.219Z,953.29
2019-06-26T03:06:26.235Z,953.25
2019-06-26T03:07:26.062Z,953.24
2019-06-26T03:08:25.956Z,953.32
2019-06-26T03:09:25.867Z,953.28
2019-06-26T03:10:25.780Z,953.29
2019-06-26T03:11:25.692Z,953.26
2019-06-26T03:12:25.616Z,953.27
2019-06-26T03:13:25.516Z,953.25
2019-06-26T03:14:25.432Z,953.24
2019-06-26T03:15:25.338Z,953.26
2019-06-26T03:16:25.252Z,953.27
2019-06-26T03:17:25.176Z,953.25
2019-06-26T03:18:25.090Z,953.25
2019-06-26T03:19:24.986Z,953.24
2019-06-26T03:20:24.995Z,953.23
2019-06-26T03:21:24.809Z,953.28
2019-06-26T03:22:24.737Z,953.26
2019-06-26T03:23:24.635Z,953.25
2019-06-26T03:24:24.544Z,953.25
2019-06-26T03:25:24.455Z,953.24
2019-06-26T03:26:24.367Z,953.25
2019-06-26T03:27:24.294Z,953.31
2019-06-26T03:28:24.214Z,953.27
2019-06-26T03:29:24.103Z,953.26
2019-06-26T03:30:24.181Z,953.28
2019-06-26T03:31:23.939Z,953.29
2019-06-26T03:32:23.854Z,953.33
2019-06-26T03:33:23.758Z,953.26
2019-06-26T03:34:23.663Z,953.26
2019-06-26T03:35:23.574Z,953.31
2019-06-26T03:36:23.507Z,953.27
2019-06-26T03:37:23.449Z,953.31
2019-06-26T03:38:23.310Z,953.31
2019-06-26T03:39:23.228Z,953.34
2019-06-26T03:40:23.133Z,953.30
2019-06-26T03:41:23.045Z,953.29
2019-06-26T03:42:22.975Z,953.26
2019-06-26T03:43:22.869Z,953.29
2019-06-26T03:44:22.781Z,953.30
2019-06-26T03:45:26.192Z,953.26
2019-06-26T03:46:22.604Z,953.30
2019-06-26T03:47:22.518Z,953.29
2019-06-26T03:48:22.455Z,953.25
2019-06-26T03:49:22.341Z,953.29
2019-06-26T03:50:22.253Z,953.33
2019-06-26T03:51:22.167Z,953.32
2019-06-26T03:52:22.076Z,953.26
2019-06-26T03:53:22.001Z,953.27
2019-06-26T03:54:21.902Z,953.32
2019-06-26T03:55:21.813Z,953.28
2019-06-26T03:56:21.721Z,953.30
2019-06-26T03:57:21.636Z,953.30
2019-06-26T03:58:21.561Z,953.31
2019-06-26T03:59:21.459Z,953.33
2019-06-26T04:00:21.383Z,953.30
2019-06-26T04:01:21.283Z,953.33
2019-06-26T04:02:21.203Z,953.32
2019-06-26T04:03:21.126Z,953.31
2019-06-26T04:04:21.026Z,953.30
2019-06-26T04:05:20.969Z,953.31
2019-06-26T04:06:20.841Z,953.33
2019-06-26T04:07:20.755Z,953.33
2019-06-26T04:08:20.688Z,953.32
2019-06-26T04:09:20.577Z,953.34
2019-06-26T04:10:20.495Z,953.36
2019-06-26T04:11:20.403Z,953.32
2019-06-26T04:12:20.315Z,953.38
2019-06-26T04:13:20.254Z,953.36
2019-06-26T04:14:20.141Z,953.38
2019-06-26T04:15:20.050Z,953.39
2019-06-26T04:16:20.251Z,953.41
2019-06-26T04:17:19.874Z,953.38
2019-06-26T04:18:19.805Z,953.44
2019-06-26T04:19:19.707Z,953.41
2019-06-26T04:20:19.611Z,953.37
2019-06-26T04:21:19.534Z,953.43
2019-06-26T04:22:19.435Z,953.41
2019-06-26T04:23:19.369Z,953.42
2019-06-26T04:24:19.258Z,953.45
2019-06-26T04:25:19.184Z,953.43
2019-06-26T04:26:19.089Z,953.47
2019-06-26T04:27:18.998Z,953.47
2019-06-26T04:28:18.923Z,953.45
2019-06-26T04:29:18.824Z,953.43
2019-06-26T04:30:18.733Z,953.47
2019-06-26T04:31:18.644Z,953.45
2019-06-26T04:32:18.556Z,953.45
2019-06-26T04:33:18.485Z,953.46
2019-06-26T04:34:18.384Z,953.45
2019-06-26T04:35:18.296Z,953.45
2019-06-26T04:36:18.206Z,953.44
2019-06-26T04:37:18.125Z,953.49
2019-06-26T04:38:18.045Z,953.47
2019-06-26T04:39:17.943Z,953.44
2019-06-26T04:40:20.319Z,953.47
2019-06-26T04:41:17.767Z,953.45
2019-06-26T04:42:17.680Z,953.43
2019-06-26T04:43:17.608Z,953.43
2019-06-26T04:44:17.504Z,953.49
2019-06-26T04:45:17.418Z,953.48
2019-06-26T04:46:17.335Z,953.48
2019-06-26T04:47:17.245Z,953.47
2019-06-26T04:48:17.180Z,953.49
2019-06-26T04:49:17.091Z,953.52
2019-06-26T04:50:16.980Z,953.52
2019-06-26T04:51:16.894Z,953.50
2019-06-26T04:52:16.808Z,953.51
2019-06-26T04:53:16.729Z,953.48
2019-06-26T04:54:16.646Z,953.48
2019-06-26T04:55:16.546Z,953.48
2019-06-26T04:56:16.455Z,953.53
2019-06-26T04:57:16.369Z,953.51
2019-06-26T04:58:16.387Z,953.51
2019-06-26T04:59:16.216Z,953.54
2019-06-26T05:00:16.109Z,953.52
2019-06-26T05:01:16.078Z,953.50
2019-06-26T05:02:15.944Z,953.48
2019-06-26T05:03:15.848Z,953.50
2019-06-26T05:04:15.774Z,953.49
2019-06-26T05:05:15.790Z,953.47
2019-06-26T05:06:15.586Z,953.50
2019-06-26T05:07:15.499Z,953.46
2019-06-26T05:08:15.411Z,953.51
2019-06-26T05:09:15.341Z,953.50
2019-06-26T05:10:15.238Z,953.50
2019-06-26T05:11:15.151Z,953.54
2019-06-26T05:12:15.167Z,953.58
2019-06-26T05:13:14.975Z,953.55
2019-06-26T05:14:14.906Z,953.55
2019-06-26T05:15:14.804Z,953.55
2019-06-26T05:16:17.770Z,953.58
2019-06-26T05:17:14.628Z,953.57
2019-06-26T05:18:14.541Z,953.56
2019-06-26T05:19:14.578Z,953.59
2019-06-26T05:20:14.367Z,953.59
2019-06-26T05:21:14.282Z,953.59
2019-06-26T05:22:14.194Z,953.55
2019-06-26T05:23:14.107Z,953.53
2019-06-26T05:24:14.033Z,953.53
2019-06-26T05:25:13.933Z,953.54
2019-06-26T05:26:13.962Z,953.58
2019-06-26T05:27:13.761Z,953.57
2019-06-26T05:28:13.674Z,953.54
2019-06-26T05:29:13.600Z,953.57
2019-06-26T05:30:13.500Z,953.57
2019-06-26T05:31:13.413Z,953.63
2019-06-26T05:32:13.325Z,953.64
2019-06-26T05:33:13.335Z,953.59
2019-06-26T05:34:13.174Z,953.61
2019-06-26T05:35:13.066Z,953.59
2019-06-26T05:36:12.981Z,953.61
2019-06-26T05:37:12.898Z,953.63
2019-06-26T05:38:12.805Z,953.65
2019-06-26T05:39:12.733Z,953.64
2019-06-26T05:40:12.808Z,953.63
2019-06-26T05:41:12.545Z,953.68
2019-06-26T05:42:12.458Z,953.68
2019-06-26T05:43:12.373Z,953.68
2019-06-26T05:44:12.299Z,953.68
2019-06-26T05:45:12.201Z,953.71
2019-06-26T05:46:12.119Z,953.70
2019-06-26T05:47:12.131Z,953.71
2019-06-26T05:48:11.940Z,953.73
2019-06-26T05:49:11.870Z,953.71
2019-06-26T05:50:11.766Z,953.77
2019-06-26T05:51:11.684Z,953.76
2019-06-26T05:52:11.593Z,953.74
2019-06-26T05:53:11.506Z,953.77
2019-06-26T05:54:11.436Z,953.86
2019-06-26T05:55:11.338Z,953.86
2019-06-26T05:56:11.248Z,953.78
2019-06-26T05:57:11.163Z,953.78
2019-06-26T05:58:11.077Z,953.81
2019-06-26T05:59:11.009Z,953.81
2019-06-26T06:00:10.902Z,953.89
2019-06-26T06:01:10.918Z,953.87
2019-06-26T06:02:10.730Z,953.87
2019-06-26T06:03:10.645Z,953.87
2019-06-26T06:04:10.565Z,953.93
2019-06-26T06:05:10.541Z,953.91
2019-06-26T06:06:10.390Z,953.90
2019-06-26T06:07:10.339Z,953.95
2019-06-26T06:08:10.342Z,953.95
2019-06-26T06:09:10.127Z,953.96
2019-06-26T06:10:10.043Z,953.98
2019-06-26T06:11:09.958Z,954.02
2019-06-26T06:12:09.870Z,954.02
2019-06-26T06:13:09.824Z,954.00
2019-06-26T06:14:09.696Z,954.04
2019-06-26T06:15:09.639Z,954.07
2019-06-26T06:16:09.562Z,954.09
2019-06-26T06:17:09.440Z,954.10
2019-06-26T06:18:09.356Z,954.11
2019-06-26T06:19:09.283Z,954.12
2019-06-26T06:20:09.182Z,954.12
2019-06-26T06:21:09.129Z,954.10
2019-06-26T06:22:09.112Z,954.06
2019-06-26T06:23:08.953Z,954.09
2019-06-26T06:24:08.853Z,954.12
2019-06-26T06:25:08.755Z,954.15
2019-06-26T06:26:08.667Z,954.16
2019-06-26T06:27:08.582Z,954.16
2019-06-26T06:28:08.608Z,954.15
2019-06-26T06:29:08.426Z,954.15
2019-06-26T06:30:08.323Z,954.17
2019-06-26T06:31:08.245Z,954.17
2019-06-26T06:32:08.153Z,954.15
2019-06-26T06:33:08.068Z,954.21
2019-06-26T06:34:08.005Z,954.23
2019-06-26T06:35:07.899Z,954.18
2019-06-26T06:36:09.775Z,954.30
2019-06-26T06:37:07.723Z,954.29
2019-06-26T06:38:07.682Z,954.57
2019-06-26T06:39:07.554Z,955.49
2019-06-26T06:40:07.485Z,956.15
2019-06-26T06:41:07.382Z,956.23
2019-06-26T06:42:07.297Z,956.18
2019-06-26T06:43:07.208Z,956.17
2019-06-26T06:44:07.153Z,956.27
2019-06-26T06:45:07.042Z,956.35
2019-06-26T06:46:06.955Z,956.34
2019-06-26T06:47:09.011Z,956.40
2019-06-26T06:48:06.787Z,956.38
2019-06-26T06:49:06.705Z,956.41
2019-06-26T06:50:06.634Z,956.48
2019-06-26T06:51:06.535Z,956.47
2019-06-26T06:52:06.449Z,956.52
2019-06-26T06:53:06.367Z,956.55
2019-06-26T06:54:06.285Z,956.59
2019-06-26T06:55:06.230Z,956.72
2019-06-26T06:56:06.115Z,956.76
2019-06-26T06:57:06.040Z,956.75
2019-06-26T06:58:05.951Z,956.82
2019-06-26T06:59:05.867Z,956.84
2019-06-26T07:00:05.800Z,956.85
2019-06-26T07:01:05.727Z,956.87
2019-06-26T07:02:05.636Z,956.88
2019-06-26T07:03:05.538Z,956.90
2019-06-26T07:04:05.456Z,956.88
2019-06-26T07:05:05.390Z,956.93
2019-06-26T07:06:05.310Z,956.99
2019-06-26T07:07:05.213Z,957.02
2019-06-26T07:08:05.133Z,957.10
2019-06-26T07:09:05.052Z,957.20
2019-06-26T07:10:04.982Z,957.49
2019-06-26T07:11:04.892Z,958.25
2019-06-26T07:12:04.806Z,958.87
2019-06-26T07:13:04.729Z,958.85
2019-06-26T07:14:04.644Z,958.79
2019-06-26T07:15:04.579Z,958.93
2019-06-26T07:16:04.484Z,958.81
2019-06-26T07:17:19.248Z,958.60
2019-06-26T07:18:04.322Z,958.67
2019-06-26T07:19:04.242Z,958.76
2019-06-26T07:20:04.183Z,958.72
2019-06-26T07:21:04.081Z,959.64
2019-06-26T07:22:07.087Z,959.39
2019-06-26T07:23:03.923Z,958.91
2019-06-26T07:24:03.843Z,958.97
2019-06-26T07:25:03.782Z,959.22
2019-06-26T07:26:03.687Z,959.70
2019-06-26T07:27:03.608Z,959.41
2019-06-26T07:28:03.547Z,958.78
2019-06-26T07:29:03.493Z,958.68
2019-06-26T07:30:03.418Z,958.65
2019-06-26T07:31:03.291Z,958.40
2019-06-26T07:32:03.210Z,958.74
2019-06-26T07:33:03.132Z,958.76
2019-06-26T07:34:03.054Z,958.39
2019-06-26T07:35:02.993Z,958.21
2019-06-26T07:36:02.905Z,958.29
2019-06-26T07:37:02.818Z,958.32
2019-06-26T07:38:02.744Z,958.36
2019-06-26T07:39:02.794Z,959.40
2019-06-26T07:40:02.639Z,959.17
2019-06-26T07:41:02.506Z,958.24
2019-06-26T07:42:02.434Z,958.12
2019-06-26T07:43:02.413Z,958.13
2019-06-26T07:44:02.282Z,958.10
2019-06-26T07:45:02.355Z,958.14
2019-06-26T07:46:02.116Z,958.18
2019-06-26T07:47:02.087Z,958.09
2019-06-26T07:48:01.968Z,957.83
2019-06-26T07:49:01.885Z,957.75
2019-06-26T07:50:01.839Z,957.79
2019-06-26T07:51:01.872Z,957.65
2019-06-26T07:52:01.753Z,957.54
2019-06-26T07:53:01.575Z,957.37
2019-06-26T07:54:01.499Z,957.34
2019-06-26T07:55:01.424Z,957.32
2019-06-26T07:56:01.357Z,957.23
2019-06-26T07:57:01.267Z,957.01
2019-06-26T07:58:01.190Z,957.09
2019-06-26T07:59:01.356Z,957.11
2019-06-26T08:00:01.038Z,957.08
2019-06-26T08:01:00.976Z,957.03
2019-06-26T08:02:00.884Z,957.00
2019-06-26T08:03:04.100Z,956.99
2019-06-26T08:04:00.730Z,956.93
2019-06-26T08:05:00.657Z,956.91
2019-06-26T08:06:00.721Z,956.83
2019-06-26T08:07:00.505Z,956.77
2019-06-26T08:08:00.431Z,956.69
2019-06-26T08:09:00.350Z,956.69
2019-06-26T08:10:00.281Z,956.64
2019-06-26T08:11:00.247Z,956.56
2019-06-26T08:12:00.207Z,956.53
2019-06-26T08:13:00.272Z,956.48
2019-06-26T08:14:00.072Z,956.44
2019-06-26T08:14:59.896Z,956.36
2019-06-26T08:15:59.834Z,956.28
2019-06-26T08:16:59.752Z,956.25
2019-06-26T08:18:01.408Z,956.26
2019-06-26T08:18:59.616Z,956.21
2019-06-26T08:19:59.618Z,956.16
2019-06-26T08:21:11.614Z,956.17
2019-06-26T08:21:59.374Z,956.12
2019-06-26T08:22:59.291Z,956.11
2019-06-26T08:23:59.222Z,956.08
2019-06-26T08:24:59.146Z,956.08
2019-06-26T08:25:59.080Z,956.11
2019-06-26T08:26:59.093Z,956.03
2019-06-26T08:27:58.913Z,956.02
2019-06-26T08:28:58.840Z,956.05
2019-06-26T08:29:58.763Z,956.05
2019-06-26T08:30:58.716Z,956.03
2019-06-26T08:31:58.611Z,956.02
2019-06-26T08:32:58.552Z,956.07
2019-06-26T08:33:58.565Z,956.04
2019-06-26T08:34:58.385Z,955.96
2019-06-26T08:35:58.324Z,955.92
2019-06-26T08:36:58.235Z,955.97
2019-06-26T08:38:09.908Z,956.07
2019-06-26T08:38:58.084Z,956.07
2019-06-26T08:39:58.009Z,956.03
2019-06-26T08:40:57.953Z,956.07
2019-06-26T08:41:57.922Z,955.99
2019-06-26T08:42:57.783Z,956.01
2019-06-26T08:43:57.718Z,956.00
2019-06-26T08:44:57.637Z,956.05
2019-06-26T08:45:57.573Z,956.07
2019-06-26T08:46:57.491Z,956.13
2019-06-26T08:47:57.508Z,956.08
2019-06-26T08:48:57.333Z,956.05
2019-06-26T08:49:57.263Z,956.13
2019-06-26T08:50:57.203Z,956.20
2019-06-26T08:51:57.110Z,956.14
2019-06-26T08:52:57.041Z,956.11
2019-06-26T08:53:56.967Z,956.15
2019-06-26T08:54:56.888Z,956.37
2019-06-26T08:55:56.832Z,956.58
2019-06-26T08:56:56.756Z,956.61
2019-06-26T08:57:56.670Z,956.42
2019-06-26T08:58:56.590Z,956.41
2019-06-26T08:59:56.513Z,956.48
2019-06-26T09:00:56.461Z,956.45
2019-06-26T09:01:56.367Z,956.49
2019-06-26T09:02:56.307Z,956.57
2019-06-26T09:03:56.217Z,956.65
2019-06-26T09:04:56.141Z,956.52
2019-06-26T09:05:56.069Z,956.81
2019-06-26T09:06:56.007Z,956.91
2019-06-26T09:07:55.936Z,956.75
2019-06-26T09:08:55.847Z,957.12
2019-06-26T09:09:55.769Z,957.04
2019-06-26T09:10:55.699Z,956.89
2019-06-26T09:11:55.635Z,956.98
2019-06-26T09:12:55.546Z,956.90
2019-06-26T09:13:55.474Z,956.58
2019-06-26T09:14:55.410Z,956.46
2019-06-26T09:15:55.326Z,956.51
2019-06-26T09:16:55.268Z,956.59
2019-06-26T09:17:55.174Z,956.73
2019-06-26T09:18:55.101Z,956.65
2019-06-26T09:19:55.024Z,956.86
2019-06-26T09:20:54.973Z,956.79
2019-06-26T09:21:54.889Z,956.84
2019-06-26T09:22:54.807Z,956.86
2019-06-26T09:23:54.726Z,956.70
2019-06-26T09:24:54.664Z,956.64
2019-06-26T09:25:54.582Z,956.77
2019-06-26T09:26:54.546Z,956.68
2019-06-26T09:27:54.424Z,956.66
2019-06-26T09:28:54.351Z,956.93
2019-06-26T09:29:54.384Z,956.63
2019-06-26T09:30:54.204Z,956.11
2019-06-26T09:31:54.157Z,956.04
2019-06-26T09:32:54.052Z,956.41
2019-06-26T09:33:53.981Z,956.34
2019-06-26T09:34:53.902Z,956.12
2019-06-26T09:35:53.826Z,955.87
2019-06-26T09:36:53.769Z,956.01
2019-06-26T09:37:53.676Z,956.21
2019-06-26T09:38:57.677Z,956.18
2019-06-26T09:39:53.527Z,955.67
2019-06-26T09:40:53.451Z,955.47
2019-06-26T09:41:53.392Z,955.43
2019-06-26T09:42:53.303Z,955.29
2019-06-26T09:43:53.226Z,955.23
2019-06-26T09:44:53.152Z,955.04
2019-06-26T09:45:53.089Z,954.87
2019-06-26T09:46:53.021Z,954.72
2019-06-26T09:47:52.930Z,954.83
2019-06-26T09:48:53.696Z,954.64
2019-06-26T09:49:52.787Z,954.45
2019-06-26T09:50:52.706Z,954.45
2019-06-26T09:51:52.777Z,954.67
2019-06-26T09:52:52.595Z,954.56
2019-06-26T09:53:52.486Z,954.62
2019-06-26T09:54:52.418Z,954.66
2019-06-26T09:55:52.336Z,954.60
2019-06-26T09:56:52.280Z,954.63
2019-06-26T09:57:52.188Z,954.64
2019-06-26T09:58:52.115Z,954.58
2019-06-26T09:59:52.041Z,954.60
2019-06-26T10:00:51.973Z,954.57
2019-06-26T10:01:51.909Z,954.61
2019-06-26T10:02:51.821Z,954.60
2019-06-26T10:03:51.747Z,954.64
2019-06-26T10:04:51.672Z,954.66
2019-06-26T10:05:51.603Z,954.59
2019-06-26T10:06:51.539Z,954.58
2019-06-26T10:07:51.451Z,954.63
2019-06-26T10:08:54.062Z,954.64
2019-06-26T10:09:51.328Z,954.63
2019-06-26T10:10:51.231Z,954.59
2019-06-26T10:11:51.174Z,954.59
2019-06-26T10:12:51.089Z,954.61
2019-06-26T10:13:51.010Z,954.64
2019-06-26T10:14:50.938Z,954.74
2019-06-26T10:15:50.868Z,954.76
2019-06-26T10:16:50.791Z,954.81
2019-06-26T10:17:50.731Z,954.80
2019-06-26T10:18:50.680Z,954.90
2019-06-26T10:19:53.939Z,954.90
2019-06-26T10:20:50.505Z,954.92
2019-06-26T10:21:50.425Z,954.89
2019-06-26T10:22:50.365Z,954.89
2019-06-26T10:23:50.276Z,954.90
2019-06-26T10:24:50.203Z,954.87
2019-06-26T10:25:50.130Z,954.89
2019-06-26T10:26:50.061Z,954.99
2019-06-26T10:27:49.997Z,954.94
2019-06-26T10:28:49.910Z,954.97
2019-06-26T10:29:49.837Z,955.03
2019-06-26T10:30:49.762Z,954.96
2019-06-26T10:31:49.691Z,955.03
2019-06-26T10:32:49.681Z,955.04
2019-06-26T10:33:49.543Z,954.99
2019-06-26T10:34:49.473Z,955.00
2019-06-26T10:35:49.398Z,955.04
2019-06-26T10:36:49.325Z,955.02
2019-06-26T10:37:49.267Z,955.03
2019-06-26T10:38:49.179Z,955.02
2019-06-26T10:39:49.211Z,955.04
2019-06-26T10:40:49.083Z,954.99
2019-06-26T10:41:48.965Z,955.02
2019-06-26T10:42:48.908Z,954.99
2019-06-26T10:43:48.817Z,955.05
2019-06-26T10:44:48.744Z,955.02
2019-06-26T10:45:48.793Z,955.07
2019-06-26T10:46:48.704Z,955.10
2019-06-26T10:47:48.541Z,955.07
2019-06-26T10:48:48.453Z,955.07
2019-06-26T10:49:48.381Z,955.07
2019-06-26T10:50:55.500Z,955.06
2019-06-26T10:51:48.234Z,955.04
2019-06-26T10:52:48.177Z,954.97
2019-06-26T10:53:48.190Z,954.86
2019-06-26T10:54:48.017Z,954.87
2019-06-26T10:55:47.943Z,954.92
2019-06-26T10:56:47.876Z,954.89
2019-06-26T10:57:47.812Z,954.88
2019-06-26T10:58:47.772Z,954.84
2019-06-26T10:59:47.654Z,954.86
2019-06-26T11:00:47.681Z,954.82
2019-06-26T11:01:47.508Z,954.81
2019-06-26T11:02:47.450Z,954.88
2019-06-26T11:03:47.364Z,954.82
2019-06-26T11:04:47.287Z,954.90
2019-06-26T11:05:47.213Z,954.88
2019-06-26T11:06:47.140Z,954.74
2019-06-26T11:07:47.186Z,954.72
2019-06-26T11:08:46.995Z,954.60
2019-06-26T11:09:46.920Z,954.73
2019-06-26T11:10:46.853Z,954.70
2019-06-26T11:11:46.773Z,954.68
2019-06-26T11:12:49.050Z,954.69
2019-06-26T11:13:46.626Z,954.63
2019-06-26T11:14:46.679Z,954.65
2019-06-26T11:15:46.479Z,954.65
2019-06-26T11:16:46.406Z,954.67
2019-06-26T11:17:46.351Z,954.65
2019-06-26T11:18:46.259Z,954.58
2019-06-26T11:19:46.189Z,954.61
2019-06-26T11:20:46.115Z,954.56
2019-06-26T11:21:46.151Z,954.59
2019-06-26T11:22:45.968Z,954.54
2019-06-26T11:23:45.909Z,954.59
2019-06-26T11:24:45.844Z,954.53
2019-06-26T11:25:45.747Z,954.52
2019-06-26T11:26:45.675Z,954.49
2019-06-26T11:27:45.618Z,954.49
2019-06-26T11:28:45.629Z,954.50
2019-06-26T11:29:45.458Z,954.50
2019-06-26T11:30:45.382Z,954.51
2019-06-26T11:31:45.316Z,954.48
2019-06-26T11:32:45.236Z,954.45
2019-06-26T11:33:45.194Z,954.41
2019-06-26T11:34:45.089Z,954.40
2019-06-26T11:35:45.119Z,954.36
2019-06-26T11:37:02.367Z,954.28
2019-06-26T11:37:44.874Z,954.44
2019-06-26T11:38:44.812Z,954.38
2019-06-26T11:39:44.736Z,954.35
2019-06-26T11:40:44.664Z,954.37
2019-06-26T11:41:44.576Z,954.37
2019-06-26T11:42:44.503Z,954.37
2019-06-26T11:43:44.445Z,954.32
2019-06-26T11:44:44.359Z,954.34
2019-06-26T11:45:44.289Z,954.33
2019-06-26T11:46:44.229Z,954.33
2019-06-26T11:47:45.914Z,954.34
2019-06-26T11:48:44.092Z,954.37
2019-06-26T11:49:59.001Z,954.36
2019-06-26T11:50:43.920Z,954.31
2019-06-26T11:51:43.860Z,954.27
2019-06-26T11:52:43.775Z,954.28
2019-06-26T11:53:43.718Z,954.27
2019-06-26T11:54:43.625Z,954.33
2019-06-26T11:55:43.566Z,954.32
2019-06-26T11:56:43.498Z,954.32
2019-06-26T11:57:43.408Z,954.34
2019-06-26T11:58:43.351Z,954.36
2019-06-26T11:59:43.260Z,954.31
2019-06-26T12:00:43.194Z,954.29
2019-06-26T12:01:43.119Z,954.33
2019-06-26T12:02:43.043Z,954.27
2019-06-26T12:03:42.983Z,954.31
2019-06-26T12:04:42.896Z,954.30
2019-06-26T12:05:42.843Z,954.26
2019-06-26T12:06:45.952Z,954.29
2019-06-26T12:07:42.676Z,954.26
2019-06-26T12:08:42.623Z,954.26
2019-06-26T12:09:42.552Z,954.33
2019-06-26T12:10:42.458Z,954.36
2019-06-26T12:11:42.386Z,954.40
2019-06-26T12:12:42.311Z,954.39
2019-06-26T12:13:42.253Z,954.39
2019-06-26T12:14:42.172Z,954.33
2019-06-26T12:15:42.094Z,954.30
2019-06-26T12:16:42.019Z,954.31
2019-06-26T12:17:41.954Z,954.28
2019-06-26T12:18:41.900Z,954.26
2019-06-26T12:19:41.816Z,954.29
2019-06-26T12:20:41.748Z,954.26
2019-06-26T12:21:41.656Z,954.21
2019-06-26T12:22:41.585Z,954.23
2019-06-26T12:23:41.523Z,954.23
2019-06-26T12:24:41.437Z,954.21
2019-06-26T12:25:41.365Z,954.15
2019-06-26T12:26:41.292Z,954.13
2019-06-26T12:27:41.225Z,954.23